sensor_id;sensor_type;location;lat;lon;timestamp;P1;durP1;ratioP1;P2;durP2;ratioP2
16994;SDS011;8614;48.522;9.206;2023-06-24T00:02:08;10.93;;;10.03;;
16994;SDS011;8614;48.522;9.206;2023-06-24T00:04:35;10.40;;;9.43;;
16994;SDS011;8614;48.522;9.206;2023-06-24T00:07:01;8.80;;;7.53;;
16994;SDS011;8614;48.522;9.206;2023-06-24T00:09:30;11.17;;;10.13;;
16994;SDS011;8614;48.522;9.206;2023-06-24T00:11:57;12.10;;;8.60;;
16994;SDS011;8614;48.522;9.206;2023-06-24T00:14:24;10.57;;;9.57;;
16994;SDS011;8614;48.522;9.206;2023-06-24T00:16:52;9.60;;;8.60;;
16994;SDS011;8614;48.522;9.206;2023-06-24T00:19:19;13.27;;;12.07;;
16994;SDS011;8614;48.522;9.206;2023-06-24T00:21:47;11.90;;;10.90;;
16994;SDS011;8614;48.522;9.206;2023-06-24T00:24:16;11.53;;;10.53;;
16994;SDS011;8614;48.522;9.206;2023-06-24T00:26:46;11.60;;;10.50;;
16994;SDS011;8614;48.522;9.206;2023-06-24T00:29:13;11.47;;;10.43;;
16994;SDS011;8614;48.522;9.206;2023-06-24T00:31:40;13.07;;;11.97;;
16994;SDS011;8614;48.522;9.206;2023-06-24T00:34:07;12.53;;;11.33;;
16994;SDS011;8614;48.522;9.206;2023-06-24T00:36:34;11.20;;;10.20;;
16994;SDS011;8614;48.522;9.206;2023-06-24T00:39:02;11.63;;;10.63;;
16994;SDS011;8614;48.522;9.206;2023-06-24T00:41:30;11.57;;;10.37;;
16994;SDS011;8614;48.522;9.206;2023-06-24T00:43:59;13.67;;;10.43;;
16994;SDS011;8614;48.522;9.206;2023-06-24T00:46:26;12.07;;;10.97;;
16994;SDS011;8614;48.522;9.206;2023-06-24T00:48:57;13.73;;;12.07;;
16994;SDS011;8614;48.522;9.206;2023-06-24T00:51:25;11.43;;;10.33;;
16994;SDS011;8614;48.522;9.206;2023-06-24T00:53:55;9.83;;;8.43;;
16994;SDS011;8614;48.522;9.206;2023-06-24T00:56:25;10.13;;;8.73;;
16994;SDS011;8614;48.522;9.206;2023-06-24T00:58:54;9.37;;;7.80;;
16994;SDS011;8614;48.522;9.206;2023-06-24T01:01:24;9.77;;;8.63;;
16994;SDS011;8614;48.522;9.206;2023-06-24T01:03:51;11.33;;;10.07;;
16994;SDS011;8614;48.522;9.206;2023-06-24T01:06:18;10.67;;;9.67;;
16994;SDS011;8614;48.522;9.206;2023-06-24T01:08:45;12.70;;;11.50;;
16994;SDS011;8614;48.522;9.206;2023-06-24T01:11:15;11.77;;;10.77;;
16994;SDS011;8614;48.522;9.206;2023-06-24T01:13:42;12.33;;;11.03;;
16994;SDS011;8614;48.522;9.206;2023-06-24T01:16:10;8.50;;;7.47;;
16994;SDS011;8614;48.522;9.206;2023-06-24T01:18:46;12.13;;;11.03;;
16994;SDS011;8614;48.522;9.206;2023-06-24T01:21:21;10.80;;;9.70;;
16994;SDS011;8614;48.522;9.206;2023-06-24T01:24:06;9.70;;;8.80;;
16994;SDS011;8614;48.522;9.206;2023-06-24T01:27:05;10.23;;;9.23;;
16994;SDS011;8614;48.522;9.206;2023-06-24T01:30:03;11.83;;;10.83;;
16994;SDS011;8614;48.522;9.206;2023-06-24T01:32:45;9.87;;;8.87;;
16994;SDS011;8614;48.522;9.206;2023-06-24T01:35:19;10.17;;;9.23;;
16994;SDS011;8614;48.522;9.206;2023-06-24T01:37:49;9.73;;;8.73;;
16994;SDS011;8614;48.522;9.206;2023-06-24T01:40:20;13.17;;;9.07;;
16994;SDS011;8614;48.522;9.206;2023-06-24T01:42:51;10.47;;;9.47;;
16994;SDS011;8614;48.522;9.206;2023-06-24T01:45:21;8.97;;;8.07;;
16994;SDS011;8614;48.522;9.206;2023-06-24T01:47:54;8.43;;;7.63;;
16994;SDS011;8614;48.522;9.206;2023-06-24T01:50:25;9.93;;;7.73;;
16994;SDS011;8614;48.522;9.206;2023-06-24T01:52:52;9.63;;;8.30;;
16994;SDS011;8614;48.522;9.206;2023-06-24T01:55:21;8.13;;;7.30;;
16994;SDS011;8614;48.522;9.206;2023-06-24T01:57:50;8.73;;;7.53;;
16994;SDS011;8614;48.522;9.206;2023-06-24T02:00:18;8.70;;;7.80;;
16994;SDS011;8614;48.522;9.206;2023-06-24T02:02:48;9.13;;;7.90;;
16994;SDS011;8614;48.522;9.206;2023-06-24T02:05:18;9.17;;;7.70;;
16994;SDS011;8614;48.522;9.206;2023-06-24T02:07:46;9.00;;;7.30;;
16994;SDS011;8614;48.522;9.206;2023-06-24T02:10:16;8.40;;;7.60;;
16994;SDS011;8614;48.522;9.206;2023-06-24T02:12:45;9.00;;;8.13;;
16994;SDS011;8614;48.522;9.206;2023-06-24T02:15:14;8.57;;;7.77;;
16994;SDS011;8614;48.522;9.206;2023-06-24T02:17:42;8.53;;;7.63;;
16994;SDS011;8614;48.522;9.206;2023-06-24T02:20:10;9.20;;;8.10;;
16994;SDS011;8614;48.522;9.206;2023-06-24T02:22:39;9.73;;;8.50;;
16994;SDS011;8614;48.522;9.206;2023-06-24T02:25:07;9.13;;;8.23;;
16994;SDS011;8614;48.522;9.206;2023-06-24T02:27:35;10.93;;;9.93;;
16994;SDS011;8614;48.522;9.206;2023-06-24T02:30:02;10.97;;;10.07;;
16994;SDS011;8614;48.522;9.206;2023-06-24T02:32:30;12.03;;;10.83;;
16994;SDS011;8614;48.522;9.206;2023-06-24T02:34:57;12.17;;;11.07;;
16994;SDS011;8614;48.522;9.206;2023-06-24T02:37:27;12.90;;;11.80;;
16994;SDS011;8614;48.522;9.206;2023-06-24T02:39:56;13.47;;;12.23;;
16994;SDS011;8614;48.522;9.206;2023-06-24T02:42:23;11.77;;;10.67;;
16994;SDS011;8614;48.522;9.206;2023-06-24T02:44:50;12.20;;;10.93;;
16994;SDS011;8614;48.522;9.206;2023-06-24T02:47:18;11.53;;;10.43;;
16994;SDS011;8614;48.522;9.206;2023-06-24T02:49:47;12.07;;;10.87;;
16994;SDS011;8614;48.522;9.206;2023-06-24T02:52:16;11.00;;;10.00;;
16994;SDS011;8614;48.522;9.206;2023-06-24T02:54:43;13.13;;;11.80;;
16994;SDS011;8614;48.522;9.206;2023-06-24T02:57:27;9.13;;;8.00;;
16994;SDS011;8614;48.522;9.206;2023-06-24T03:00:19;12.30;;;11.37;;
16994;SDS011;8614;48.522;9.206;2023-06-24T03:03:05;11.87;;;10.87;;
16994;SDS011;8614;48.522;9.206;2023-06-24T03:05:34;11.50;;;10.60;;
16994;SDS011;8614;48.522;9.206;2023-06-24T03:08:21;11.57;;;10.60;;
16994;SDS011;8614;48.522;9.206;2023-06-24T03:10:50;8.07;;;7.27;;
16994;SDS011;8614;48.522;9.206;2023-06-24T03:13:21;7.67;;;6.77;;
16994;SDS011;8614;48.522;9.206;2023-06-24T03:16:11;7.00;;;6.30;;
16994;SDS011;8614;48.522;9.206;2023-06-24T03:18:47;7.80;;;6.50;;
16994;SDS011;8614;48.522;9.206;2023-06-24T03:21:13;7.83;;;6.47;;
16994;SDS011;8614;48.522;9.206;2023-06-24T03:23:40;9.03;;;7.17;;
16994;SDS011;8614;48.522;9.206;2023-06-24T03:26:10;8.20;;;7.13;;
16994;SDS011;8614;48.522;9.206;2023-06-24T03:28:38;8.57;;;6.50;;
16994;SDS011;8614;48.522;9.206;2023-06-24T03:31:15;7.80;;;7.00;;
16994;SDS011;8614;48.522;9.206;2023-06-24T03:33:42;7.60;;;6.80;;
16994;SDS011;8614;48.522;9.206;2023-06-24T03:36:11;7.57;;;6.77;;
16994;SDS011;8614;48.522;9.206;2023-06-24T03:38:39;7.70;;;6.90;;
16994;SDS011;8614;48.522;9.206;2023-06-24T03:41:06;8.50;;;7.23;;
16994;SDS011;8614;48.522;9.206;2023-06-24T03:43:33;9.13;;;6.83;;
16994;SDS011;8614;48.522;9.206;2023-06-24T03:46:01;8.10;;;6.93;;
16994;SDS011;8614;48.522;9.206;2023-06-24T03:48:28;8.27;;;7.20;;
16994;SDS011;8614;48.522;9.206;2023-06-24T03:50:55;8.20;;;7.30;;
16994;SDS011;8614;48.522;9.206;2023-06-24T03:53:22;7.20;;;6.40;;
16994;SDS011;8614;48.522;9.206;2023-06-24T03:55:50;6.97;;;6.27;;
16994;SDS011;8614;48.522;9.206;2023-06-24T03:58:16;7.73;;;6.93;;
16994;SDS011;8614;48.522;9.206;2023-06-24T04:00:46;10.90;;;10.00;;
16994;SDS011;8614;48.522;9.206;2023-06-24T04:03:15;7.80;;;7.00;;
16994;SDS011;8614;48.522;9.206;2023-06-24T04:05:43;8.77;;;6.90;;
16994;SDS011;8614;48.522;9.206;2023-06-24T04:08:10;8.00;;;7.20;;
16994;SDS011;8614;48.522;9.206;2023-06-24T04:10:37;8.37;;;7.33;;
16994;SDS011;8614;48.522;9.206;2023-06-24T04:13:04;8.27;;;7.03;;
16994;SDS011;8614;48.522;9.206;2023-06-24T04:15:32;10.17;;;9.37;;
16994;SDS011;8614;48.522;9.206;2023-06-24T04:17:59;11.60;;;10.60;;
16994;SDS011;8614;48.522;9.206;2023-06-24T04:20:27;10.37;;;9.50;;
16994;SDS011;8614;48.522;9.206;2023-06-24T04:22:54;7.67;;;6.63;;
16994;SDS011;8614;48.522;9.206;2023-06-24T04:25:20;8.60;;;6.93;;
16994;SDS011;8614;48.522;9.206;2023-06-24T04:27:47;7.40;;;6.50;;
16994;SDS011;8614;48.522;9.206;2023-06-24T04:30:14;9.30;;;8.60;;
16994;SDS011;8614;48.522;9.206;2023-06-24T04:32:41;7.20;;;6.30;;
16994;SDS011;8614;48.522;9.206;2023-06-24T04:35:09;8.50;;;7.70;;
16994;SDS011;8614;48.522;9.206;2023-06-24T04:37:38;10.90;;;10.10;;
16994;SDS011;8614;48.522;9.206;2023-06-24T04:40:05;8.00;;;7.30;;
16994;SDS011;8614;48.522;9.206;2023-06-24T04:42:33;7.03;;;6.33;;
16994;SDS011;8614;48.522;9.206;2023-06-24T04:45:00;7.90;;;7.20;;
16994;SDS011;8614;48.522;9.206;2023-06-24T04:47:30;8.37;;;7.17;;
16994;SDS011;8614;48.522;9.206;2023-06-24T04:49:57;10.40;;;9.50;;
16994;SDS011;8614;48.522;9.206;2023-06-24T04:52:24;7.70;;;6.53;;
16994;SDS011;8614;48.522;9.206;2023-06-24T04:54:52;7.83;;;7.03;;
16994;SDS011;8614;48.522;9.206;2023-06-24T04:57:26;8.00;;;7.30;;
16994;SDS011;8614;48.522;9.206;2023-06-24T04:59:53;9.70;;;8.90;;
16994;SDS011;8614;48.522;9.206;2023-06-24T05:02:23;8.30;;;7.50;;
16994;SDS011;8614;48.522;9.206;2023-06-24T05:04:51;9.40;;;8.40;;
16994;SDS011;8614;48.522;9.206;2023-06-24T05:07:21;8.97;;;8.17;;
16994;SDS011;8614;48.522;9.206;2023-06-24T05:09:48;10.80;;;9.80;;
16994;SDS011;8614;48.522;9.206;2023-06-24T05:12:17;8.70;;;7.93;;
16994;SDS011;8614;48.522;9.206;2023-06-24T05:14:48;8.47;;;7.67;;
16994;SDS011;8614;48.522;9.206;2023-06-24T05:17:20;7.67;;;6.97;;
16994;SDS011;8614;48.522;9.206;2023-06-24T05:19:49;7.50;;;6.70;;
16994;SDS011;8614;48.522;9.206;2023-06-24T05:22:16;9.47;;;8.57;;
16994;SDS011;8614;48.522;9.206;2023-06-24T05:24:42;8.80;;;7.90;;
16994;SDS011;8614;48.522;9.206;2023-06-24T05:27:09;7.83;;;7.03;;
16994;SDS011;8614;48.522;9.206;2023-06-24T05:29:37;7.80;;;7.00;;
16994;SDS011;8614;48.522;9.206;2023-06-24T05:32:04;8.83;;;7.93;;
16994;SDS011;8614;48.522;9.206;2023-06-24T05:34:32;9.13;;;8.23;;
16994;SDS011;8614;48.522;9.206;2023-06-24T05:36:59;7.43;;;6.63;;
16994;SDS011;8614;48.522;9.206;2023-06-24T05:39:25;9.13;;;8.33;;
16994;SDS011;8614;48.522;9.206;2023-06-24T05:41:52;9.53;;;8.70;;
16994;SDS011;8614;48.522;9.206;2023-06-24T05:44:19;9.67;;;8.77;;
16994;SDS011;8614;48.522;9.206;2023-06-24T05:46:49;9.03;;;8.20;;
16994;SDS011;8614;48.522;9.206;2023-06-24T05:49:16;9.37;;;7.27;;
16994;SDS011;8614;48.522;9.206;2023-06-24T05:51:42;8.20;;;7.50;;
16994;SDS011;8614;48.522;9.206;2023-06-24T05:54:09;8.90;;;8.10;;
16994;SDS011;8614;48.522;9.206;2023-06-24T05:56:36;7.97;;;5.83;;
16994;SDS011;8614;48.522;9.206;2023-06-24T05:59:04;10.73;;;7.60;;
16994;SDS011;8614;48.522;9.206;2023-06-24T06:01:31;6.50;;;5.60;;
16994;SDS011;8614;48.522;9.206;2023-06-24T06:04:12;7.10;;;6.27;;
16994;SDS011;8614;48.522;9.206;2023-06-24T06:06:48;8.40;;;7.53;;
16994;SDS011;8614;48.522;9.206;2023-06-24T06:09:24;9.13;;;8.33;;
16994;SDS011;8614;48.522;9.206;2023-06-24T06:11:53;6.73;;;5.97;;
16994;SDS011;8614;48.522;9.206;2023-06-24T06:14:23;7.87;;;7.07;;
16994;SDS011;8614;48.522;9.206;2023-06-24T06:16:52;7.47;;;6.77;;
16994;SDS011;8614;48.522;9.206;2023-06-24T06:19:22;9.40;;;8.70;;
16994;SDS011;8614;48.522;9.206;2023-06-24T06:24:31;9.23;;;8.53;;
16994;SDS011;8614;48.522;9.206;2023-06-24T06:27:04;9.80;;;8.90;;
16994;SDS011;8614;48.522;9.206;2023-06-24T06:29:35;10.07;;;9.23;;
16994;SDS011;8614;48.522;9.206;2023-06-24T06:32:05;9.27;;;8.37;;
16994;SDS011;8614;48.522;9.206;2023-06-24T06:34:42;8.67;;;7.87;;
16994;SDS011;8614;48.522;9.206;2023-06-24T06:37:16;9.27;;;8.47;;
16994;SDS011;8614;48.522;9.206;2023-06-24T06:39:44;8.27;;;7.47;;
16994;SDS011;8614;48.522;9.206;2023-06-24T06:42:13;8.07;;;7.30;;
16994;SDS011;8614;48.522;9.206;2023-06-24T06:44:45;7.90;;;7.10;;
16994;SDS011;8614;48.522;9.206;2023-06-24T06:47:14;8.47;;;7.67;;
16994;SDS011;8614;48.522;9.206;2023-06-24T06:49:43;8.10;;;7.40;;
16994;SDS011;8614;48.522;9.206;2023-06-24T06:52:23;7.70;;;7.10;;
16994;SDS011;8614;48.522;9.206;2023-06-24T06:54:55;7.67;;;6.83;;
16994;SDS011;8614;48.522;9.206;2023-06-24T06:57:31;8.00;;;7.30;;
16994;SDS011;8614;48.522;9.206;2023-06-24T07:00:57;7.83;;;7.13;;
16994;SDS011;8614;48.522;9.206;2023-06-24T07:03:45;8.00;;;7.37;;
16994;SDS011;8614;48.522;9.206;2023-06-24T07:06:30;7.80;;;7.10;;
16994;SDS011;8614;48.522;9.206;2023-06-24T07:08:59;7.70;;;7.00;;
16994;SDS011;8614;48.522;9.206;2023-06-24T07:11:42;8.00;;;7.40;;
16994;SDS011;8614;48.522;9.206;2023-06-24T07:14:09;8.27;;;7.43;;
16994;SDS011;8614;48.522;9.206;2023-06-24T07:16:36;7.13;;;6.53;;
16994;SDS011;8614;48.522;9.206;2023-06-24T07:19:04;7.67;;;6.97;;
16994;SDS011;8614;48.522;9.206;2023-06-24T07:21:40;7.10;;;6.53;;
16994;SDS011;8614;48.522;9.206;2023-06-24T07:24:09;8.17;;;7.47;;
16994;SDS011;8614;48.522;9.206;2023-06-24T07:26:36;8.10;;;7.50;;
16994;SDS011;8614;48.522;9.206;2023-06-24T07:29:05;8.20;;;7.50;;
16994;SDS011;8614;48.522;9.206;2023-06-24T07:31:33;8.10;;;7.40;;
16994;SDS011;8614;48.522;9.206;2023-06-24T07:34:00;7.90;;;7.30;;
16994;SDS011;8614;48.522;9.206;2023-06-24T07:36:26;8.47;;;7.60;;
16994;SDS011;8614;48.522;9.206;2023-06-24T07:38:54;9.03;;;8.13;;
16994;SDS011;8614;48.522;9.206;2023-06-24T07:41:21;8.40;;;7.60;;
16994;SDS011;8614;48.522;9.206;2023-06-24T07:43:48;8.50;;;7.73;;
16994;SDS011;8614;48.522;9.206;2023-06-24T07:46:15;6.57;;;6.07;;
16994;SDS011;8614;48.522;9.206;2023-06-24T07:48:42;8.07;;;7.27;;
16994;SDS011;8614;48.522;9.206;2023-06-24T07:51:09;8.53;;;7.73;;
16994;SDS011;8614;48.522;9.206;2023-06-24T07:53:39;7.10;;;6.60;;
16994;SDS011;8614;48.522;9.206;2023-06-24T07:56:07;7.43;;;6.53;;
16994;SDS011;8614;48.522;9.206;2023-06-24T07:58:34;6.60;;;6.10;;
16994;SDS011;8614;48.522;9.206;2023-06-24T08:01:03;7.83;;;7.23;;
16994;SDS011;8614;48.522;9.206;2023-06-24T08:03:30;7.60;;;7.00;;
16994;SDS011;8614;48.522;9.206;2023-06-24T08:05:58;7.40;;;6.80;;
16994;SDS011;8614;48.522;9.206;2023-06-24T08:08:28;6.37;;;5.87;;
16994;SDS011;8614;48.522;9.206;2023-06-24T08:11:00;6.43;;;5.93;;
16994;SDS011;8614;48.522;9.206;2023-06-24T08:13:29;6.70;;;6.20;;
16994;SDS011;8614;48.522;9.206;2023-06-24T08:15:56;7.40;;;6.80;;
16994;SDS011;8614;48.522;9.206;2023-06-24T08:18:23;7.07;;;6.43;;
16994;SDS011;8614;48.522;9.206;2023-06-24T08:20:49;7.13;;;6.53;;
16994;SDS011;8614;48.522;9.206;2023-06-24T08:23:16;8.63;;;7.70;;
16994;SDS011;8614;48.522;9.206;2023-06-24T08:28:35;6.03;;;5.53;;
16994;SDS011;8614;48.522;9.206;2023-06-24T08:31:01;7.73;;;7.00;;
16994;SDS011;8614;48.522;9.206;2023-06-24T08:33:38;6.23;;;5.53;;
16994;SDS011;8614;48.522;9.206;2023-06-24T08:36:27;9.30;;;7.23;;
16994;SDS011;8614;48.522;9.206;2023-06-24T08:38:57;7.33;;;6.77;;
16994;SDS011;8614;48.522;9.206;2023-06-24T08:41:24;7.27;;;6.67;;
16994;SDS011;8614;48.522;9.206;2023-06-24T08:43:53;6.40;;;5.80;;
16994;SDS011;8614;48.522;9.206;2023-06-24T08:46:21;7.70;;;7.00;;
16994;SDS011;8614;48.522;9.206;2023-06-24T08:48:52;7.87;;;7.13;;
16994;SDS011;8614;48.522;9.206;2023-06-24T08:51:25;8.13;;;7.43;;
16994;SDS011;8614;48.522;9.206;2023-06-24T08:53:55;6.67;;;6.07;;
16994;SDS011;8614;48.522;9.206;2023-06-24T08:56:24;6.57;;;6.07;;
16994;SDS011;8614;48.522;9.206;2023-06-24T08:58:53;6.23;;;5.70;;
16994;SDS011;8614;48.522;9.206;2023-06-24T09:01:23;6.50;;;6.00;;
16994;SDS011;8614;48.522;9.206;2023-06-24T09:03:52;6.60;;;6.07;;
16994;SDS011;8614;48.522;9.206;2023-06-24T09:06:18;7.40;;;6.77;;
16994;SDS011;8614;48.522;9.206;2023-06-24T09:08:51;6.30;;;5.70;;
16994;SDS011;8614;48.522;9.206;2023-06-24T09:11:21;6.17;;;5.57;;
16994;SDS011;8614;48.522;9.206;2023-06-24T09:13:55;6.30;;;5.80;;
16994;SDS011;8614;48.522;9.206;2023-06-24T09:16:22;7.20;;;6.60;;
16994;SDS011;8614;48.522;9.206;2023-06-24T09:18:55;7.10;;;6.50;;
16994;SDS011;8614;48.522;9.206;2023-06-24T09:21:23;7.90;;;7.03;;
16994;SDS011;8614;48.522;9.206;2023-06-24T09:24:05;6.67;;;6.17;;
16994;SDS011;8614;48.522;9.206;2023-06-24T09:26:32;6.70;;;6.20;;
16994;SDS011;8614;48.522;9.206;2023-06-24T09:29:00;6.60;;;6.00;;
16994;SDS011;8614;48.522;9.206;2023-06-24T09:31:27;6.43;;;5.80;;
16994;SDS011;8614;48.522;9.206;2023-06-24T09:33:56;7.20;;;6.67;;
16994;SDS011;8614;48.522;9.206;2023-06-24T09:36:23;6.93;;;6.40;;
16994;SDS011;8614;48.522;9.206;2023-06-24T09:38:50;6.83;;;6.33;;
16994;SDS011;8614;48.522;9.206;2023-06-24T09:41:17;6.97;;;6.47;;
16994;SDS011;8614;48.522;9.206;2023-06-24T09:43:44;7.27;;;6.77;;
16994;SDS011;8614;48.522;9.206;2023-06-24T09:46:12;6.93;;;6.43;;
16994;SDS011;8614;48.522;9.206;2023-06-24T09:48:40;6.70;;;6.20;;
16994;SDS011;8614;48.522;9.206;2023-06-24T09:51:08;6.80;;;6.30;;
16994;SDS011;8614;48.522;9.206;2023-06-24T09:53:37;6.50;;;5.90;;
16994;SDS011;8614;48.522;9.206;2023-06-24T09:56:04;5.70;;;5.20;;
16994;SDS011;8614;48.522;9.206;2023-06-24T09:58:34;5.80;;;5.23;;
16994;SDS011;8614;48.522;9.206;2023-06-24T10:01:02;5.83;;;5.33;;
16994;SDS011;8614;48.522;9.206;2023-06-24T10:03:32;6.60;;;6.00;;
16994;SDS011;8614;48.522;9.206;2023-06-24T10:06:01;7.20;;;6.60;;
16994;SDS011;8614;48.522;9.206;2023-06-24T10:08:29;5.40;;;5.00;;
16994;SDS011;8614;48.522;9.206;2023-06-24T10:10:57;7.00;;;6.50;;
16994;SDS011;8614;48.522;9.206;2023-06-24T10:13:25;6.53;;;5.97;;
16994;SDS011;8614;48.522;9.206;2023-06-24T10:15:52;5.97;;;5.47;;
16994;SDS011;8614;48.522;9.206;2023-06-24T10:21:10;4.87;;;4.43;;
16994;SDS011;8614;48.522;9.206;2023-06-24T10:23:40;3.77;;;3.40;;
16994;SDS011;8614;48.522;9.206;2023-06-24T10:26:08;4.20;;;3.80;;
16994;SDS011;8614;48.522;9.206;2023-06-24T10:31:51;4.73;;;4.33;;
16994;SDS011;8614;48.522;9.206;2023-06-24T10:34:33;5.87;;;5.37;;
16994;SDS011;8614;48.522;9.206;2023-06-24T10:37:05;3.40;;;3.10;;
16994;SDS011;8614;48.522;9.206;2023-06-24T10:39:36;4.23;;;3.60;;
16994;SDS011;8614;48.522;9.206;2023-06-24T10:45:18;4.23;;;3.70;;
16994;SDS011;8614;48.522;9.206;2023-06-24T10:47:46;5.03;;;3.20;;
16994;SDS011;8614;48.522;9.206;2023-06-24T10:50:15;3.83;;;3.43;;
16994;SDS011;8614;48.522;9.206;2023-06-24T10:52:45;5.30;;;2.97;;
16994;SDS011;8614;48.522;9.206;2023-06-24T10:55:13;3.67;;;3.30;;
16994;SDS011;8614;48.522;9.206;2023-06-24T10:57:41;6.40;;;5.77;;
16994;SDS011;8614;48.522;9.206;2023-06-24T11:00:09;6.30;;;5.80;;
16994;SDS011;8614;48.522;9.206;2023-06-24T11:02:36;5.83;;;5.33;;
16994;SDS011;8614;48.522;9.206;2023-06-24T11:05:04;4.70;;;4.30;;
16994;SDS011;8614;48.522;9.206;2023-06-24T11:07:33;4.90;;;4.43;;
16994;SDS011;8614;48.522;9.206;2023-06-24T11:10:02;3.53;;;3.23;;
16994;SDS011;8614;48.522;9.206;2023-06-24T11:12:31;5.83;;;5.37;;
16994;SDS011;8614;48.522;9.206;2023-06-24T11:14:59;6.40;;;5.90;;
16994;SDS011;8614;48.522;9.206;2023-06-24T11:17:27;6.03;;;5.53;;
16994;SDS011;8614;48.522;9.206;2023-06-24T11:19:54;5.80;;;5.30;;
16994;SDS011;8614;48.522;9.206;2023-06-24T11:22:24;6.23;;;5.73;;
16994;SDS011;8614;48.522;9.206;2023-06-24T11:24:52;6.23;;;5.73;;
16994;SDS011;8614;48.522;9.206;2023-06-24T11:27:24;5.80;;;5.40;;
16994;SDS011;8614;48.522;9.206;2023-06-24T11:29:52;3.37;;;3.07;;
16994;SDS011;8614;48.522;9.206;2023-06-24T11:32:19;5.23;;;4.67;;
16994;SDS011;8614;48.522;9.206;2023-06-24T11:34:46;5.93;;;5.37;;
16994;SDS011;8614;48.522;9.206;2023-06-24T11:37:14;3.07;;;2.83;;
16994;SDS011;8614;48.522;9.206;2023-06-24T11:39:41;3.63;;;3.30;;
16994;SDS011;8614;48.522;9.206;2023-06-24T11:42:09;5.93;;;5.43;;
16994;SDS011;8614;48.522;9.206;2023-06-24T11:44:40;6.30;;;5.80;;
16994;SDS011;8614;48.522;9.206;2023-06-24T11:47:09;6.20;;;5.67;;
16994;SDS011;8614;48.522;9.206;2023-06-24T11:49:49;5.90;;;5.43;;
16994;SDS011;8614;48.522;9.206;2023-06-24T11:52:17;3.97;;;3.67;;
16994;SDS011;8614;48.522;9.206;2023-06-24T11:54:45;4.07;;;3.77;;
16994;SDS011;8614;48.522;9.206;2023-06-24T11:57:17;5.40;;;5.00;;
16994;SDS011;8614;48.522;9.206;2023-06-24T11:59:44;3.57;;;3.27;;
16994;SDS011;8614;48.522;9.206;2023-06-24T12:02:13;4.57;;;4.17;;
16994;SDS011;8614;48.522;9.206;2023-06-24T12:04:43;3.47;;;3.17;;
16994;SDS011;8614;48.522;9.206;2023-06-24T12:07:11;4.90;;;3.50;;
16994;SDS011;8614;48.522;9.206;2023-06-24T12:09:37;5.63;;;5.23;;
16994;SDS011;8614;48.522;9.206;2023-06-24T12:12:04;5.50;;;5.00;;
16994;SDS011;8614;48.522;9.206;2023-06-24T12:14:34;5.13;;;4.73;;
16994;SDS011;8614;48.522;9.206;2023-06-24T12:17:00;5.73;;;5.23;;
16994;SDS011;8614;48.522;9.206;2023-06-24T12:19:27;5.10;;;4.70;;
16994;SDS011;8614;48.522;9.206;2023-06-24T12:21:54;4.63;;;4.20;;
16994;SDS011;8614;48.522;9.206;2023-06-24T12:24:21;4.63;;;4.23;;
16994;SDS011;8614;48.522;9.206;2023-06-24T12:26:48;5.53;;;5.10;;
16994;SDS011;8614;48.522;9.206;2023-06-24T12:29:16;6.57;;;5.77;;
16994;SDS011;8614;48.522;9.206;2023-06-24T12:31:44;4.20;;;3.90;;
16994;SDS011;8614;48.522;9.206;2023-06-24T12:34:11;6.07;;;5.57;;
16994;SDS011;8614;48.522;9.206;2023-06-24T12:36:38;4.13;;;3.67;;
16994;SDS011;8614;48.522;9.206;2023-06-24T12:39:05;3.97;;;3.40;;
16994;SDS011;8614;48.522;9.206;2023-06-24T12:41:31;4.23;;;3.20;;
16994;SDS011;8614;48.522;9.206;2023-06-24T12:43:59;3.00;;;2.70;;
16994;SDS011;8614;48.522;9.206;2023-06-24T12:46:26;3.67;;;3.13;;
16994;SDS011;8614;48.522;9.206;2023-06-24T12:48:54;3.63;;;3.30;;
16994;SDS011;8614;48.522;9.206;2023-06-24T12:51:21;6.40;;;5.80;;
16994;SDS011;8614;48.522;9.206;2023-06-24T12:53:48;4.63;;;4.20;;
16994;SDS011;8614;48.522;9.206;2023-06-24T12:56:15;4.10;;;3.40;;
16994;SDS011;8614;48.522;9.206;2023-06-24T12:58:42;3.17;;;2.87;;
16994;SDS011;8614;48.522;9.206;2023-06-24T13:01:08;5.93;;;5.40;;
16994;SDS011;8614;48.522;9.206;2023-06-24T13:03:35;5.70;;;5.30;;
16994;SDS011;8614;48.522;9.206;2023-06-24T13:06:03;5.80;;;5.30;;
16994;SDS011;8614;48.522;9.206;2023-06-24T13:08:30;6.20;;;5.60;;
16994;SDS011;8614;48.522;9.206;2023-06-24T13:10:57;6.57;;;6.07;;
16994;SDS011;8614;48.522;9.206;2023-06-24T13:13:24;3.80;;;3.20;;
16994;SDS011;8614;48.522;9.206;2023-06-24T13:15:51;3.77;;;3.10;;
16994;SDS011;8614;48.522;9.206;2023-06-24T13:18:18;4.00;;;3.33;;
16994;SDS011;8614;48.522;9.206;2023-06-24T13:20:44;3.50;;;3.20;;
16994;SDS011;8614;48.522;9.206;2023-06-24T13:23:12;4.87;;;4.47;;
16994;SDS011;8614;48.522;9.206;2023-06-24T13:25:39;5.40;;;4.90;;
16994;SDS011;8614;48.522;9.206;2023-06-24T13:28:06;5.77;;;5.30;;
16994;SDS011;8614;48.522;9.206;2023-06-24T13:30:33;6.00;;;5.50;;
16994;SDS011;8614;48.522;9.206;2023-06-24T13:33:00;5.30;;;4.90;;
16994;SDS011;8614;48.522;9.206;2023-06-24T13:35:26;5.43;;;5.03;;
16994;SDS011;8614;48.522;9.206;2023-06-24T13:37:53;5.60;;;5.10;;
16994;SDS011;8614;48.522;9.206;2023-06-24T13:40:21;3.40;;;3.03;;
16994;SDS011;8614;48.522;9.206;2023-06-24T13:42:48;4.23;;;3.03;;
16994;SDS011;8614;48.522;9.206;2023-06-24T13:45:15;6.50;;;3.50;;
16994;SDS011;8614;48.522;9.206;2023-06-24T13:47:42;3.60;;;3.07;;
16994;SDS011;8614;48.522;9.206;2023-06-24T13:50:09;3.77;;;3.10;;
16994;SDS011;8614;48.522;9.206;2023-06-24T13:52:36;5.17;;;3.43;;
16994;SDS011;8614;48.522;9.206;2023-06-24T13:55:04;3.40;;;3.10;;
16994;SDS011;8614;48.522;9.206;2023-06-24T13:57:32;3.53;;;3.23;;
16994;SDS011;8614;48.522;9.206;2023-06-24T13:59:59;5.97;;;5.57;;
16994;SDS011;8614;48.522;9.206;2023-06-24T14:02:26;3.43;;;3.13;;
16994;SDS011;8614;48.522;9.206;2023-06-24T14:04:53;4.53;;;3.10;;
16994;SDS011;8614;48.522;9.206;2023-06-24T14:07:20;6.10;;;5.60;;
16994;SDS011;8614;48.522;9.206;2023-06-24T14:09:46;5.87;;;5.37;;
16994;SDS011;8614;48.522;9.206;2023-06-24T14:12:13;3.83;;;3.33;;
16994;SDS011;8614;48.522;9.206;2023-06-24T14:14:41;5.27;;;3.67;;
16994;SDS011;8614;48.522;9.206;2023-06-24T14:17:08;7.67;;;6.13;;
16994;SDS011;8614;48.522;9.206;2023-06-24T14:19:36;6.10;;;5.60;;
16994;SDS011;8614;48.522;9.206;2023-06-24T14:22:04;6.10;;;5.60;;
16994;SDS011;8614;48.522;9.206;2023-06-24T14:24:31;6.50;;;5.93;;
16994;SDS011;8614;48.522;9.206;2023-06-24T14:26:59;5.33;;;4.83;;
16994;SDS011;8614;48.522;9.206;2023-06-24T14:29:25;5.80;;;5.40;;
16994;SDS011;8614;48.522;9.206;2023-06-24T14:31:53;6.57;;;5.97;;
16994;SDS011;8614;48.522;9.206;2023-06-24T14:34:22;6.20;;;5.70;;
16994;SDS011;8614;48.522;9.206;2023-06-24T14:36:49;6.77;;;6.17;;
16994;SDS011;8614;48.522;9.206;2023-06-24T14:39:16;6.47;;;5.87;;
16994;SDS011;8614;48.522;9.206;2023-06-24T14:41:43;6.83;;;6.13;;
16994;SDS011;8614;48.522;9.206;2023-06-24T14:44:10;6.40;;;5.90;;
16994;SDS011;8614;48.522;9.206;2023-06-24T14:46:37;6.47;;;5.87;;
16994;SDS011;8614;48.522;9.206;2023-06-24T14:49:05;6.10;;;5.60;;
16994;SDS011;8614;48.522;9.206;2023-06-24T14:51:32;6.10;;;5.60;;
16994;SDS011;8614;48.522;9.206;2023-06-24T14:53:59;6.50;;;6.00;;
16994;SDS011;8614;48.522;9.206;2023-06-24T14:56:25;6.43;;;5.93;;
16994;SDS011;8614;48.522;9.206;2023-06-24T14:58:52;7.33;;;6.73;;
16994;SDS011;8614;48.522;9.206;2023-06-24T15:01:19;6.07;;;5.57;;
16994;SDS011;8614;48.522;9.206;2023-06-24T15:03:46;4.63;;;4.20;;
16994;SDS011;8614;48.522;9.206;2023-06-24T15:06:14;8.07;;;5.70;;
16994;SDS011;8614;48.522;9.206;2023-06-24T15:08:41;6.23;;;5.73;;
16994;SDS011;8614;48.522;9.206;2023-06-24T15:11:08;6.07;;;5.50;;
16994;SDS011;8614;48.522;9.206;2023-06-24T15:13:35;6.33;;;5.83;;
16994;SDS011;8614;48.522;9.206;2023-06-24T15:16:01;6.23;;;5.63;;
16994;SDS011;8614;48.522;9.206;2023-06-24T15:18:28;5.80;;;5.30;;
16994;SDS011;8614;48.522;9.206;2023-06-24T15:20:55;4.27;;;3.33;;
16994;SDS011;8614;48.522;9.206;2023-06-24T15:23:24;4.07;;;3.37;;
16994;SDS011;8614;48.522;9.206;2023-06-24T15:25:51;4.00;;;3.30;;